Time;durP1;ratioP1;P1;durP2;ratioP2;P2;SDS_P1;SDS_P2;PMS_P1;PMS_P2;Temp;Humidity;BMP_temperature;BMP_pressure;BME280_temperature;BME280_humidity;BME280_pressure;Samples;Min_cycle;Max_cycle;Signal;HPM_P1;HPM_P2
2023/05/25 00:02:07;;;;;;;20.13;6.38;;;11.80;99.90;;;;;;5078688;28;20093;-74
2023/05/25 00:04:33;;;;;;;21.95;6.53;;;11.70;99.90;;;;;;5114850;28;20027;-74
2023/05/25 00:06:59;;;;;;;22.23;7.50;;;11.70;99.90;;;;;;5105463;28;20499;-74
2023/05/25 00:09:25;;;;;;;20.58;6.13;;;11.70;99.90;;;;;;5114925;28;20121;-73
2023/05/25 00:11:51;;;;;;;18.88;6.70;;;11.70;99.90;;;;;;5093136;28;20036;-75
2023/05/25 00:14:17;;;;;;;19.40;6.45;;;11.70;99.90;;;;;;5087895;28;20024;-72
2023/05/25 00:16:43;;;;;;;16.88;6.45;;;11.70;99.90;;;;;;5082607;28;20032;-73
2023/05/25 00:19:12;;;;;;;21.00;7.40;;;11.70;99.90;;;;;;5076100;28;20036;-73
2023/05/25 00:21:38;;;;;;;21.92;7.18;;;11.70;99.90;;;;;;5089752;28;20024;-76
2023/05/25 00:24:05;;;;;;;19.95;7.22;;;11.70;99.90;;;;;;5087480;28;20024;-74
2023/05/25 00:26:30;;;;;;;17.85;7.47;;;11.60;99.90;;;;;;5073805;28;20465;-73
2023/05/25 00:28:59;;;;;;;20.98;7.50;;;11.60;99.90;;;;;;5070658;28;20068;-73
2023/05/25 00:31:25;;;;;;;19.95;8.18;;;11.60;99.90;;;;;;5053879;28;20425;-73
2023/05/25 00:33:50;;;;;;;23.83;7.65;;;11.60;99.90;;;;;;5035765;28;20033;-73
2023/05/25 00:36:16;;;;;;;21.70;7.47;;;11.60;99.90;;;;;;5061009;28;20020;-74
2023/05/25 00:38:43;;;;;;;25.23;8.07;;;11.60;99.90;;;;;;5073746;28;20445;-74
2023/05/25 00:41:08;;;;;;;24.23;7.22;;;11.50;99.90;;;;;;5073478;28;20028;-73
2023/05/25 00:43:34;;;;;;;19.27;7.95;;;11.50;99.90;;;;;;5055519;28;20384;-74
2023/05/25 00:46:01;;;;;;;20.17;7.57;;;11.50;99.90;;;;;;5073741;28;20078;-73
2023/05/25 00:48:27;;;;;;;21.92;8.32;;;11.50;99.90;;;;;;5072037;28;20021;-74
2023/05/25 00:50:59;;;;;;;24.17;8.35;;;11.50;99.90;;;;;;5073037;28;20518;-72
2023/05/25 00:53:25;;;;;;;22.33;8.18;;;11.40;99.90;;;;;;5073393;28;20078;-74
2023/05/25 00:56:02;;;;;;;19.27;8.25;;;11.40;99.90;;;;;;5055349;28;20028;-74
2023/05/25 00:58:31;;;;;;;24.45;9.90;;;11.40;99.90;;;;;;5068696;28;20465;-74
2023/05/25 01:00:58;;;;;;;23.85;8.05;;;11.40;99.90;;;;;;5057807;28;20025;-73
2023/05/25 01:03:28;;;;;;;23.58;8.40;;;11.40;99.90;;;;;;5060736;28;20032;-74
2023/05/25 01:05:56;;;;;;;21.92;7.93;;;11.40;99.90;;;;;;5067816;28;20081;-74
2023/05/25 01:08:23;;;;;;;22.95;8.50;;;11.40;99.90;;;;;;5071023;28;20419;-73
2023/05/25 01:10:51;;;;;;;19.60;8.38;;;11.40;99.90;;;;;;5072377;28;20054;-73
2023/05/25 01:13:18;;;;;;;22.02;8.55;;;11.30;99.90;;;;;;5070822;28;20101;-77
2023/05/25 01:15:46;;;;;;;22.73;8.70;;;11.30;99.90;;;;;;5053517;28;20021;-74
2023/05/25 01:18:14;;;;;;;18.17;7.95;;;11.30;99.90;;;;;;5072500;28;20024;-74
2023/05/25 01:21:18;;;;;;;25.77;9.45;;;11.30;99.90;;;;;;5070866;28;20039;-74
2023/05/25 01:24:01;;;;;;;24.90;9.68;;;11.20;99.90;;;;;;5038891;28;20033;-73
2023/05/25 01:26:30;;;;;;;23.58;9.77;;;11.20;99.90;;;;;;5052867;28;20032;-75
2023/05/25 01:28:58;;;;;;;24.67;9.07;;;11.10;99.90;;;;;;5056858;28;20053;-73
2023/05/25 01:31:24;;;;;;;24.27;9.10;;;11.10;99.90;;;;;;5076328;28;20193;-76
2023/05/25 01:33:50;;;;;;;21.17;9.00;;;11.00;99.90;;;;;;5075809;28;20484;-73
2023/05/25 01:36:17;;;;;;;20.65;8.10;;;11.00;99.90;;;;;;5090180;28;20044;-74
2023/05/25 01:38:43;;;;;;;21.75;8.98;;;10.90;99.90;;;;;;5092598;28;20028;-73
2023/05/25 01:41:08;;;;;;;28.52;9.45;;;10.90;99.90;;;;;;5089862;28;20031;-79
2023/05/25 01:43:34;;;;;;;23.33;9.68;;;10.90;99.90;;;;;;5073761;28;20032;-73
2023/05/25 01:46:18;;;;;;;26.10;9.18;;;10.90;99.90;;;;;;5073118;28;20025;-73
2023/05/25 01:48:49;;;;;;;23.85;9.73;;;10.80;99.90;;;;;;5073663;28;20170;-76
2023/05/25 01:51:35;;;;;;;23.90;10.57;;;10.80;99.90;;;;;;5074137;28;20744;-73
2023/05/25 01:54:15;;;;;;;25.00;9.98;;;10.80;99.90;;;;;;5074063;28;20113;-74
2023/05/25 01:56:45;;;;;;;22.95;9.85;;;10.70;99.90;;;;;;5085276;28;20039;-73
2023/05/25 01:59:13;;;;;;;24.13;9.88;;;10.80;99.90;;;;;;5089105;28;20032;-73
2023/05/25 02:01:40;;;;;;;25.65;10.13;;;10.80;99.90;;;;;;5079150;28;20036;-73
2023/05/25 02:04:06;;;;;;;28.13;10.18;;;10.90;99.90;;;;;;5081189;28;20021;-77
2023/05/25 02:06:32;;;;;;;26.98;10.20;;;10.90;99.90;;;;;;5094869;28;20082;-74
2023/05/25 02:08:57;;;;;;;25.15;9.52;;;11.00;99.90;;;;;;5095481;28;20024;-75
2023/05/25 02:11:23;;;;;;;26.27;9.43;;;11.00;99.90;;;;;;5091423;28;20072;-74
2023/05/25 02:13:48;;;;;;;29.20;10.48;;;11.10;99.90;;;;;;5088473;28;20031;-74
2023/05/25 02:16:14;;;;;;;22.52;9.85;;;11.10;99.90;;;;;;5103058;28;20054;-73
2023/05/25 02:18:43;;;;;;;26.55;9.65;;;11.10;99.90;;;;;;5117127;28;20028;-73
2023/05/25 02:21:09;;;;;;;24.65;9.35;;;11.20;99.90;;;;;;5110640;28;20020;-73
2023/05/25 02:23:35;;;;;;;23.38;9.05;;;11.20;99.90;;;;;;5075578;28;20492;-75
2023/05/25 02:26:00;;;;;;;27.48;9.93;;;11.30;99.90;;;;;;5079472;28;20065;-75
2023/05/25 02:28:26;;;;;;;23.75;9.38;;;11.40;99.90;;;;;;5084112;28;20104;-72
2023/05/25 02:30:52;;;;;;;23.23;8.52;;;11.40;99.90;;;;;;5071645;28;20051;-75
2023/05/25 02:33:17;;;;;;;18.55;8.48;;;11.50;99.90;;;;;;5062291;28;20021;-74
2023/05/25 02:35:43;;;;;;;25.65;9.20;;;11.60;99.90;;;;;;5059145;28;20020;-73
2023/05/25 02:38:09;;;;;;;25.95;9.70;;;11.60;99.90;;;;;;5051617;28;20465;-75
2023/05/25 02:40:34;;;;;;;22.38;9.35;;;11.60;99.90;;;;;;5076215;28;20035;-74
2023/05/25 02:43:00;;;;;;;22.77;9.10;;;11.60;99.90;;;;;;5072641;28;20040;-72
2023/05/25 02:45:26;;;;;;;21.45;8.82;;;11.60;99.90;;;;;;5074225;28;20526;-73
2023/05/25 02:47:51;;;;;;;23.05;9.25;;;11.50;99.90;;;;;;5065107;28;20037;-75
2023/05/25 02:50:17;;;;;;;25.52;9.43;;;11.50;99.90;;;;;;5085370;28;20376;-74
2023/05/25 02:52:42;;;;;;;22.48;9.60;;;11.50;99.90;;;;;;5064187;28;20123;-73
2023/05/25 02:55:17;;;;;;;22.65;9.90;;;11.40;99.90;;;;;;5055393;28;20089;-71
2023/05/25 02:57:43;;;;;;;25.70;11.48;;;11.40;99.90;;;;;;5064856;28;20444;-74
2023/05/25 03:00:12;;;;;;;28.85;12.45;;;11.30;99.90;;;;;;5060810;28;20116;-73
2023/05/25 03:02:38;;;;;;;21.73;9.10;;;11.30;99.90;;;;;;5068039;28;20096;-73
2023/05/25 03:05:04;;;;;;;25.35;10.05;;;11.30;99.90;;;;;;5060119;28;20499;-72
2023/05/25 03:07:30;;;;;;;23.20;8.43;;;11.30;99.90;;;;;;5058618;28;20032;-74
2023/05/25 03:13:17;;;;;;;24.80;10.55;;;11.20;99.90;;;;;;5062998;28;20499;-73
2023/05/25 03:15:43;;;;;;;25.40;10.93;;;11.20;99.90;;;;;;5070575;28;20037;-72
2023/05/25 03:18:09;;;;;;;21.02;8.70;;;11.20;99.90;;;;;;5050391;28;20028;-75
2023/05/25 03:20:34;;;;;;;23.92;10.00;;;11.20;99.90;;;;;;5040238;28;20048;-74
2023/05/25 03:23:00;;;;;;;23.52;10.45;;;11.10;99.90;;;;;;5075103;28;20043;-72
2023/05/25 03:25:25;;;;;;;24.67;10.23;;;11.10;99.90;;;;;;5077298;28;20552;-73
2023/05/25 03:27:52;;;;;;;23.17;9.32;;;11.10;99.90;;;;;;5076167;28;20036;-73
2023/05/25 03:30:21;;;;;;;25.85;10.43;;;11.10;99.90;;;;;;5073442;28;20079;-73
2023/05/25 03:32:47;;;;;;;22.85;9.05;;;11.00;99.90;;;;;;5074398;28;20044;-74
2023/05/25 03:35:12;;;;;;;27.65;10.35;;;10.90;99.90;;;;;;5076057;28;20396;-74
2023/05/25 03:37:38;;;;;;;25.55;10.23;;;10.90;99.90;;;;;;5073577;28;20349;-75
2023/05/25 03:40:04;;;;;;;25.05;10.65;;;10.90;99.90;;;;;;5075359;28;20025;-74
2023/05/25 03:42:30;;;;;;;26.67;9.32;;;10.80;99.90;;;;;;5082803;28;20044;-74
2023/05/25 03:44:55;;;;;;;31.02;12.35;;;10.80;99.90;;;;;;5085080;28;20066;-78
2023/05/25 03:47:21;;;;;;;24.08;9.90;;;10.80;99.90;;;;;;5086743;28;20021;-75
2023/05/25 03:49:46;;;;;;;27.73;10.48;;;10.80;99.90;;;;;;5072729;28;20426;-75
2023/05/25 03:52:12;;;;;;;27.33;11.98;;;10.80;99.90;;;;;;5080800;28;20112;-74
2023/05/25 03:54:37;;;;;;;27.48;11.07;;;10.80;99.90;;;;;;5085609;28;20025;-75
2023/05/25 03:57:03;;;;;;;29.08;13.60;;;10.80;99.90;;;;;;5091051;28;20032;-76
2023/05/25 03:59:30;;;;;;;22.65;11.30;;;10.80;99.90;;;;;;5094561;28;20028;-73
2023/05/25 04:01:55;;;;;;;23.73;10.85;;;10.90;99.90;;;;;;5090171;28;20496;-73
2023/05/25 04:04:21;;;;;;;27.80;11.35;;;10.80;99.90;;;;;;5083810;28;20048;-73
2023/05/25 04:06:47;;;;;;;26.13;11.10;;;10.90;99.90;;;;;;5094477;28;20031;-73
2023/05/25 04:09:14;;;;;;;24.58;10.85;;;10.90;99.90;;;;;;5094583;28;20028;-72
2023/05/25 04:11:39;;;;;;;24.23;10.32;;;10.90;99.90;;;;;;5084473;28;20064;-72
2023/05/25 04:14:05;;;;;;;22.83;9.98;;;10.90;99.90;;;;;;5075552;28;20461;-73
2023/05/25 04:16:31;;;;;;;24.48;10.57;;;11.00;99.90;;;;;;5088536;28;20028;-72
2023/05/25 04:18:57;;;;;;;21.35;9.90;;;11.10;99.90;;;;;;5085720;28;20115;-72
2023/05/25 04:21:22;;;;;;;25.60;10.93;;;11.10;99.90;;;;;;5088565;28;20029;-71
2023/05/25 04:23:48;;;;;;;21.17;10.07;;;11.10;99.90;;;;;;5092215;28;20078;-71
2023/05/25 04:26:15;;;;;;;23.60;9.80;;;11.20;99.90;;;;;;5073857;28;20028;-75
2023/05/25 04:28:41;;;;;;;25.77;9.63;;;11.30;99.90;;;;;;5090382;28;20016;-73
2023/05/25 04:31:07;;;;;;;29.30;10.60;;;11.30;99.90;;;;;;5053383;28;20167;-72
2023/05/25 04:33:37;;;;;;;23.48;9.88;;;11.40;99.90;;;;;;5053739;28;20021;-71
2023/05/25 04:36:07;;;;;;;25.10;10.23;;;11.50;99.90;;;;;;5062412;28;20024;-75
2023/05/25 04:38:33;;;;;;;22.67;9.02;;;11.50;99.90;;;;;;5073528;28;20017;-72
2023/05/25 04:41:00;;;;;;;25.63;10.50;;;11.60;99.90;;;;;;5072351;28;20403;-73
2023/05/25 04:43:26;;;;;;;23.98;10.05;;;11.60;99.90;;;;;;5063840;28;20032;-72
2023/05/25 04:45:53;;;;;;;23.13;9.15;;;11.70;99.90;;;;;;5070089;28;20024;-73
2023/05/25 04:48:19;;;;;;;22.10;10.02;;;11.80;99.90;;;;;;5073480;28;20024;-72
2023/05/25 04:50:44;;;;;;;25.95;9.55;;;11.80;99.90;;;;;;5071670;28;20361;-72
2023/05/25 04:53:10;;;;;;;21.73;9.45;;;11.90;99.90;;;;;;5058877;28;20051;-72
2023/05/25 04:55:36;;;;;;;24.90;9.88;;;12.00;99.90;;;;;;5053377;28;20108;-72
2023/05/25 04:58:02;;;;;;;23.23;9.70;;;12.10;99.90;;;;;;5053367;28;20037;-72
2023/05/25 05:00:28;;;;;;;23.13;9.57;;;12.10;99.90;;;;;;5067497;28;20094;-75
2023/05/25 05:03:00;;;;;;;23.63;9.55;;;12.20;99.90;;;;;;5068602;28;20433;-72
2023/05/25 05:05:26;;;;;;;27.10;10.25;;;12.30;99.90;;;;;;5053437;28;20025;-73
2023/05/25 05:07:52;;;;;;;24.90;9.88;;;12.40;99.90;;;;;;5052878;28;20174;-73
2023/05/25 05:10:18;;;;;;;24.30;9.70;;;12.50;99.90;;;;;;5052768;28;20032;-72
2023/05/25 05:12:44;;;;;;;21.30;9.45;;;12.60;99.90;;;;;;5074741;28;20044;-72
2023/05/25 05:15:10;;;;;;;18.67;8.35;;;12.70;99.90;;;;;;5054356;28;20158;-72
2023/05/25 05:17:35;;;;;;;19.48;8.95;;;12.80;99.90;;;;;;5052770;28;20033;-73
2023/05/25 05:20:01;;;;;;;25.25;11.77;;;12.90;99.90;;;;;;5052885;28;20108;-72
2023/05/25 05:22:26;;;;;;;32.35;13.90;;;13.00;99.90;;;;;;5072216;28;20129;-72
2023/05/25 05:24:52;;;;;;;35.05;13.48;;;13.20;99.90;;;;;;5064021;28;20033;-72
2023/05/25 05:27:18;;;;;;;24.23;9.48;;;13.30;99.90;;;;;;5062150;28;20115;-72
2023/05/25 05:29:43;;;;;;;19.08;7.63;;;13.40;99.90;;;;;;5063462;28;20440;-71
2023/05/25 05:32:09;;;;;;;20.42;8.63;;;13.60;99.90;;;;;;5052935;28;20446;-74
2023/05/25 05:34:36;;;;;;;17.42;6.40;;;13.80;99.90;;;;;;5058276;28;20036;-71
2023/05/25 05:37:01;;;;;;;17.63;6.15;;;14.00;99.90;;;;;;5069567;28;20024;-73
2023/05/25 05:39:27;;;;;;;15.65;6.30;;;14.10;99.90;;;;;;5055226;28;20032;-75
2023/05/25 05:41:53;;;;;;;17.92;6.80;;;14.30;99.90;;;;;;5073037;28;20028;-72
2023/05/25 05:44:23;;;;;;;25.10;8.75;;;14.60;99.90;;;;;;5066698;28;20025;-72
2023/05/25 05:46:48;;;;;;;18.00;6.00;;;15.10;99.90;;;;;;5070965;28;20039;-75
2023/05/25 05:49:14;;;;;;;20.52;5.88;;;15.60;99.90;;;;;;5050897;28;20017;-73
2023/05/25 05:51:39;;;;;;;17.83;6.20;;;16.00;99.90;;;;;;5063502;28;20435;-72
2023/05/25 05:54:05;;;;;;;16.02;5.13;;;16.70;99.90;;;;;;5035040;28;20555;-77
2023/05/25 05:56:31;;;;;;;15.13;4.55;;;17.60;99.90;;;;;;5054436;28;20040;-72
2023/05/25 05:58:57;;;;;;;16.48;5.53;;;18.20;99.90;;;;;;5072493;28;20054;-75
2023/05/25 06:01:22;;;;;;;14.77;5.30;;;18.90;99.90;;;;;;5070967;28;20047;-73
2023/05/25 06:03:49;;;;;;;16.20;5.00;;;19.50;99.90;;;;;;5070397;28;20100;-74
2023/05/25 06:06:15;;;;;;;15.20;5.00;;;19.70;99.90;;;;;;5051501;28;20434;-74
2023/05/25 06:08:41;;;;;;;15.02;4.55;;;19.70;99.90;;;;;;5064160;28;20488;-75
2023/05/25 06:11:07;;;;;;;18.10;6.63;;;19.80;99.90;;;;;;5057136;28;20045;-77
2023/05/25 06:13:32;;;;;;;16.55;6.30;;;19.50;99.90;;;;;;5053996;28;20048;-71
2023/05/25 06:15:58;;;;;;;18.45;6.57;;;19.40;99.90;;;;;;5071853;28;20447;-76
2023/05/25 06:18:23;;;;;;;14.57;5.18;;;19.50;99.90;;;;;;5070768;28;20036;-74
2023/05/25 06:20:49;;;;;;;12.50;4.70;;;20.20;99.90;;;;;;5062026;28;20040;-76
2023/05/25 06:23:17;;;;;;;13.10;5.18;;;21.00;99.90;;;;;;5050791;28;20108;-75
2023/05/25 06:25:43;;;;;;;13.40;5.20;;;21.20;99.90;;;;;;5056491;28;20485;-72
2023/05/25 06:28:09;;;;;;;12.48;4.97;;;21.40;99.90;;;;;;5059695;28;20032;-74
2023/05/25 06:30:35;;;;;;;12.98;4.75;;;21.90;99.60;;;;;;5084393;28;20097;-74
2023/05/25 06:33:00;;;;;;;12.68;4.50;;;22.80;97.50;;;;;;5086532;28;20033;-73
2023/05/25 06:35:26;;;;;;;10.38;3.78;;;23.00;97.00;;;;;;5081973;28;20373;-74
2023/05/25 06:37:51;;;;;;;8.63;3.80;;;23.20;96.30;;;;;;5074922;28;20036;-76
2023/05/25 06:40:17;;;;;;;8.05;3.53;;;23.90;95.60;;;;;;5072452;28;20081;-77
2023/05/25 06:43:31;;;;;;;11.77;3.85;;;24.20;94.50;;;;;;5071133;28;20416;-75
2023/05/25 06:45:58;;;;;;;16.23;5.07;;;23.90;94.40;;;;;;5087300;28;20510;-74
2023/05/25 06:48:23;;;;;;;9.57;4.45;;;23.80;94.80;;;;;;5085745;28;20033;-73
2023/05/25 06:50:49;;;;;;;12.38;3.85;;;23.40;94.90;;;;;;5077483;28;20108;-74
2023/05/25 06:53:14;;;;;;;13.52;4.93;;;22.60;95.50;;;;;;5089330;28;20043;-77
2023/05/25 06:55:40;;;;;;;10.50;4.35;;;21.80;96.50;;;;;;5076811;28;20025;-75
2023/05/25 06:58:06;;;;;;;14.23;3.95;;;21.30;97.10;;;;;;5076471;28;20051;-77
2023/05/25 07:00:31;;;;;;;9.95;4.10;;;20.70;97.70;;;;;;5075456;28;20036;-75
2023/05/25 07:02:57;;;;;;;11.63;3.70;;;20.20;98.70;;;;;;5078334;28;20036;-74
2023/05/25 07:05:22;;;;;;;12.05;4.05;;;19.90;99.10;;;;;;5084333;28;20375;-75
2023/05/25 07:07:48;;;;;;;12.98;3.92;;;19.60;99.30;;;;;;5090612;28;20024;-74
2023/05/25 07:10:14;;;;;;;13.52;4.22;;;19.10;99.90;;;;;;5083564;28;20465;-73
2023/05/25 07:12:39;;;;;;;13.30;4.00;;;18.70;99.90;;;;;;5102644;28;20050;-74
2023/05/25 07:15:07;;;;;;;11.02;4.47;;;18.30;99.90;;;;;;5093434;28;20085;-76
2023/05/25 07:17:32;;;;;;;9.40;4.03;;;18.00;99.90;;;;;;5093661;28;20376;-74
2023/05/25 07:19:58;;;;;;;12.55;4.20;;;17.90;99.90;;;;;;5095230;28;20032;-73
2023/05/25 07:22:24;;;;;;;10.02;4.13;;;17.70;99.90;;;;;;5091345;28;20469;-77
2023/05/25 07:24:50;;;;;;;15.77;6.70;;;17.60;99.90;;;;;;5075015;28;20035;-75
2023/05/25 07:27:16;;;;;;;12.52;4.57;;;17.40;99.90;;;;;;5087053;28;20032;-74
2023/05/25 07:29:41;;;;;;;12.68;4.32;;;17.40;99.90;;;;;;5074773;28;20080;-74
2023/05/25 07:32:07;;;;;;;7.68;3.80;;;17.30;99.90;;;;;;5080890;28;20055;-72
2023/05/25 07:34:33;;;;;;;11.65;3.83;;;17.30;99.90;;;;;;5081493;28;20025;-73
2023/05/25 07:36:59;;;;;;;10.23;3.33;;;17.40;99.90;;;;;;5088548;28;20020;-73
2023/05/25 07:39:25;;;;;;;10.20;4.18;;;17.40;99.90;;;;;;5081503;28;20105;-75
2023/05/25 07:41:51;;;;;;;13.55;3.50;;;17.40;99.90;;;;;;5083818;28;20023;-72
2023/05/25 07:44:16;;;;;;;9.15;3.58;;;17.40;99.90;;;;;;5093238;28;20428;-72
2023/05/25 07:46:42;;;;;;;8.25;2.72;;;17.40;99.90;;;;;;5085052;28;20441;-72
2023/05/25 07:49:12;;;;;;;11.02;4.38;;;17.50;99.90;;;;;;5075394;28;20087;-71
2023/05/25 07:51:38;;;;;;;10.02;3.55;;;17.60;99.90;;;;;;5074027;28;20048;-72
2023/05/25 07:54:03;;;;;;;10.35;3.75;;;17.80;99.90;;;;;;5074387;28;20112;-71
2023/05/25 07:56:29;;;;;;;9.48;3.63;;;17.90;99.90;;;;;;5073782;28;20078;-71
2023/05/25 07:58:55;;;;;;;10.55;3.83;;;18.10;99.90;;;;;;5074825;28;20029;-71
2023/05/25 08:01:21;;;;;;;10.13;3.33;;;18.40;99.90;;;;;;5074533;28;20091;-73
2023/05/25 08:03:47;;;;;;;10.23;4.05;;;18.60;99.90;;;;;;5074368;28;20051;-72
2023/05/25 08:06:13;;;;;;;10.70;4.15;;;18.90;99.90;;;;;;5074264;28;20028;-72
2023/05/25 08:08:38;;;;;;;9.15;3.50;;;19.30;99.90;;;;;;5092271;28;20032;-72
2023/05/25 08:11:04;;;;;;;8.43;4.05;;;19.70;99.90;;;;;;5092462;28;20119;-73
2023/05/25 08:13:29;;;;;;;12.00;4.50;;;20.10;99.90;;;;;;5093554;28;20035;-73
2023/05/25 08:15:55;;;;;;;12.23;4.28;;;20.40;99.60;;;;;;5094652;28;20471;-75
2023/05/25 08:18:21;;;;;;;8.48;3.88;;;20.60;98.70;;;;;;5092966;28;20089;-71
2023/05/25 08:20:46;;;;;;;8.38;3.67;;;20.60;98.60;;;;;;5094067;28;20434;-72
2023/05/25 08:23:12;;;;;;;10.85;3.50;;;20.50;98.60;;;;;;5091599;28;20067;-74
2023/05/25 08:25:37;;;;;;;11.45;3.78;;;20.30;98.50;;;;;;5085608;28;20029;-76
2023/05/25 08:28:03;;;;;;;11.63;3.30;;;20.40;98.70;;;;;;5074634;28;20064;-73
2023/05/25 08:30:29;;;;;;;10.18;3.53;;;20.40;98.60;;;;;;5061168;28;20080;-73
2023/05/25 08:32:55;;;;;;;9.45;3.42;;;20.50;98.40;;;;;;5055835;28;20040;-72
2023/05/25 08:35:20;;;;;;;13.80;4.35;;;20.60;98.10;;;;;;5073229;28;20047;-73
2023/05/25 08:37:46;;;;;;;11.82;4.13;;;20.40;98.10;;;;;;5064840;28;20492;-73
2023/05/25 08:40:15;;;;;;;10.85;4.45;;;20.20;98.70;;;;;;5054540;28;20396;-73
2023/05/25 08:42:45;;;;;;;11.63;4.25;;;19.80;99.30;;;;;;5071333;28;20031;-73
2023/05/25 08:45:11;;;;;;;9.55;3.47;;;19.40;99.80;;;;;;5054084;28;20384;-75
2023/05/25 08:47:42;;;;;;;11.57;4.38;;;19.00;99.90;;;;;;5053612;28;20036;-77
2023/05/25 08:50:12;;;;;;;12.65;4.10;;;18.60;99.90;;;;;;5068691;28;20431;-74
2023/05/25 08:52:39;;;;;;;10.65;3.40;;;18.40;99.90;;;;;;5073561;28;20111;-73
2023/05/25 08:55:07;;;;;;;10.50;4.07;;;18.30;99.90;;;;;;5074178;28;20465;-72
2023/05/25 08:57:39;;;;;;;14.48;4.95;;;18.20;99.90;;;;;;5071863;28;20050;-72
2023/05/25 09:00:09;;;;;;;7.68;3.38;;;18.10;99.90;;;;;;5073201;28;20021;-75
2023/05/25 09:02:42;;;;;;;11.77;3.83;;;18.10;99.90;;;;;;5073459;28;20032;-76
2023/05/25 09:05:08;;;;;;;9.50;3.80;;;18.10;99.90;;;;;;5073376;28;20115;-75
2023/05/25 09:07:34;;;;;;;11.65;4.18;;;18.00;99.90;;;;;;5054295;28;20088;-74
2023/05/25 09:10:01;;;;;;;11.73;4.22;;;18.10;99.90;;;;;;5052203;28;20029;-73
2023/05/25 09:12:29;;;;;;;12.30;3.97;;;18.20;99.90;;;;;;5057325;28;20139;-73
2023/05/25 09:14:56;;;;;;;11.85;4.05;;;18.20;99.90;;;;;;5053409;28;20025;-72
2023/05/25 09:17:22;;;;;;;10.75;3.88;;;18.20;99.90;;;;;;5058688;28;20032;-72
2023/05/25 09:19:48;;;;;;;12.32;4.13;;;18.20;99.90;;;;;;5056977;28;20086;-75
2023/05/25 09:22:14;;;;;;;7.50;3.25;;;18.20;99.90;;;;;;5054680;28;20028;-75
2023/05/25 09:24:40;;;;;;;14.52;4.30;;;18.10;99.90;;;;;;5054649;28;20029;-72
2023/05/25 09:27:09;;;;;;;15.23;3.63;;;18.00;99.90;;;;;;5055406;28;20503;-71
2023/05/25 09:29:35;;;;;;;11.77;4.00;;;18.00;99.90;;;;;;5055094;28;20064;-73
2023/05/25 09:32:04;;;;;;;14.13;3.80;;;18.00;99.90;;;;;;5055482;28;20037;-73
2023/05/25 09:34:33;;;;;;;9.20;3.65;;;17.90;99.90;;;;;;5055227;28;20074;-72
2023/05/25 09:37:01;;;;;;;11.02;3.67;;;17.90;99.90;;;;;;5053630;28;20090;-72
2023/05/25 09:39:27;;;;;;;15.18;4.28;;;17.70;99.90;;;;;;5053135;28;20122;-72
2023/05/25 09:41:53;;;;;;;18.15;4.10;;;17.70;99.90;;;;;;5070932;28;20478;-72
2023/05/25 09:44:18;;;;;;;14.48;3.95;;;17.90;99.90;;;;;;5041640;28;20029;-74
2023/05/25 09:46:44;;;;;;;13.85;4.55;;;18.00;99.90;;;;;;5052511;28;20025;-72
2023/05/25 09:49:10;;;;;;;12.15;4.07;;;18.10;99.90;;;;;;5053245;28;20025;-73
2023/05/25 09:51:36;;;;;;;12.68;4.15;;;18.30;99.90;;;;;;5052450;28;20041;-72
2023/05/25 09:54:03;;;;;;;10.02;3.65;;;18.40;99.90;;;;;;5034973;28;20040;-75
2023/05/25 09:56:31;;;;;;;10.32;3.65;;;18.60;99.90;;;;;;5052577;28;20469;-72
2023/05/25 09:58:57;;;;;;;12.77;4.25;;;18.60;99.90;;;;;;5052785;28;20036;-72
2023/05/25 10:01:23;;;;;;;13.43;4.10;;;18.60;99.90;;;;;;5052494;28;20033;-72
2023/05/25 10:03:50;;;;;;;12.18;3.60;;;18.60;99.90;;;;;;5052461;28;20029;-72
2023/05/25 10:06:16;;;;;;;15.75;3.88;;;18.60;99.90;;;;;;5052439;28;20049;-73
2023/05/25 10:08:47;;;;;;;12.02;3.53;;;18.70;99.80;;;;;;5052430;28;20029;-70
2023/05/25 10:11:13;;;;;;;10.65;3.25;;;18.60;99.50;;;;;;5052229;28;20429;-71
2023/05/25 10:13:39;;;;;;;8.18;3.35;;;18.70;99.40;;;;;;5052616;28;20021;-72
2023/05/25 10:16:11;;;;;;;11.88;3.10;;;18.60;99.50;;;;;;5061613;28;20017;-73
2023/05/25 10:18:43;;;;;;;12.02;3.38;;;18.70;99.30;;;;;;5039398;28;20119;-73
2023/05/25 10:21:10;;;;;;;7.38;3.00;;;18.50;99.60;;;;;;5037904;28;20090;-73
2023/05/25 10:23:46;;;;;;;14.32;3.35;;;18.30;99.90;;;;;;5055763;28;20029;-73
2023/05/25 10:26:20;;;;;;;8.43;2.53;;;18.20;99.90;;;;;;5071022;28;20535;-72
2023/05/25 10:28:50;;;;;;;8.35;2.17;;;18.20;99.90;;;;;;5076184;28;20193;-72
2023/05/25 10:31:17;;;;;;;9.88;2.55;;;18.20;99.60;;;;;;5063433;28;20033;-72
2023/05/25 10:33:45;;;;;;;8.18;2.42;;;18.20;99.60;;;;;;5058206;28;20514;-72
2023/05/25 10:36:12;;;;;;;11.27;3.35;;;18.20;99.60;;;;;;5057584;28;20033;-72
2023/05/25 10:38:43;;;;;;;20.17;3.10;;;18.10;99.50;;;;;;5076369;28;20131;-72
2023/05/25 10:41:10;;;;;;;13.80;2.72;;;18.10;99.40;;;;;;5072147;28;20033;-74
2023/05/25 10:43:37;;;;;;;11.90;3.50;;;17.90;99.50;;;;;;5071597;28;20025;-74
2023/05/25 10:46:05;;;;;;;8.10;2.80;;;17.90;99.90;;;;;;5075629;28;20375;-72
2023/05/25 10:48:45;;;;;;;13.32;3.25;;;17.90;99.90;;;;;;5073673;28;20031;-72
2023/05/25 10:51:11;;;;;;;13.30;3.03;;;18.00;99.90;;;;;;5074325;28;20028;-71
2023/05/25 10:53:36;;;;;;;12.88;3.22;;;18.00;99.90;;;;;;5070845;28;20086;-72
2023/05/25 10:56:04;;;;;;;14.48;3.05;;;18.20;99.90;;;;;;5055095;28;20094;-74
2023/05/25 10:58:31;;;;;;;9.25;2.50;;;18.40;99.10;;;;;;5055583;28;20411;-72
2023/05/25 11:01:06;;;;;;;10.40;2.40;;;18.40;98.40;;;;;;5060174;28;20490;-72
2023/05/25 11:03:48;;;;;;;12.10;2.42;;;18.50;98.10;;;;;;5091131;28;20032;-72
2023/05/25 11:06:15;;;;;;;13.55;3.03;;;18.70;97.80;;;;;;5087486;28;20021;-72
2023/05/25 11:08:49;;;;;;;11.73;2.33;;;19.00;97.70;;;;;;5075791;28;20033;-71
2023/05/25 11:11:15;;;;;;;13.23;2.83;;;19.10;97.00;;;;;;5075050;28;20412;-72
2023/05/25 11:13:46;;;;;;;11.80;3.13;;;19.30;96.90;;;;;;5075363;28;20048;-72
2023/05/25 11:16:16;;;;;;;12.02;2.80;;;19.60;96.40;;;;;;5076166;28;20145;-72
2023/05/25 11:18:58;;;;;;;9.20;2.60;;;19.90;95.80;;;;;;5064184;28;20424;-72
2023/05/25 11:21:26;;;;;;;12.97;2.47;;;20.20;95.20;;;;;;5055252;28;20087;-75
2023/05/25 11:23:56;;;;;;;10.13;2.50;;;20.40;95.10;;;;;;5062630;28;20111;-72
2023/05/25 11:26:24;;;;;;;11.45;2.80;;;20.50;95.00;;;;;;5065158;28;20465;-72
2023/05/25 11:28:51;;;;;;;6.28;2.22;;;20.70;94.80;;;;;;5071495;28;20479;-75
2023/05/25 11:31:31;;;;;;;11.00;2.58;;;20.80;94.30;;;;;;5065824;28;20040;-73
2023/05/25 11:34:03;;;;;;;10.50;2.60;;;21.00;94.10;;;;;;5064671;28;20051;-75
2023/05/25 11:36:32;;;;;;;13.07;2.63;;;21.00;94.20;;;;;;5068723;28;20039;-72
2023/05/25 11:39:03;;;;;;;12.07;2.78;;;20.80;94.60;;;;;;5069302;28;20032;-74
2023/05/25 11:41:31;;;;;;;11.68;2.67;;;20.40;95.00;;;;;;5054570;28;20075;-71
2023/05/25 11:44:03;;;;;;;12.30;2.50;;;20.00;95.40;;;;;;5060074;28;20025;-74
2023/05/25 11:46:31;;;;;;;14.32;2.67;;;19.70;95.70;;;;;;5068832;28;20025;-72
2023/05/25 11:48:58;;;;;;;7.53;2.50;;;19.50;96.10;;;;;;5057210;28;20412;-71
2023/05/25 11:51:28;;;;;;;11.35;2.78;;;19.40;96.20;;;;;;5069132;28;20091;-71
2023/05/25 11:53:54;;;;;;;8.73;3.00;;;19.30;96.20;;;;;;5063747;28;20028;-72
2023/05/25 11:56:21;;;;;;;14.65;2.78;;;19.40;96.10;;;;;;5043656;28;20033;-73
2023/05/25 11:58:49;;;;;;;10.38;2.30;;;19.70;95.80;;;;;;5070691;28;20031;-74
2023/05/25 12:01:22;;;;;;;12.32;2.85;;;20.70;94.40;;;;;;5058640;28;20048;-75
2023/05/25 12:03:55;;;;;;;9.85;2.88;;;22.10;92.90;;;;;;5065308;28;20045;-74
2023/05/25 12:06:26;;;;;;;10.90;2.60;;;23.10;92.00;;;;;;5067726;28;20024;-73
2023/05/25 12:08:53;;;;;;;12.30;2.60;;;24.20;90.20;;;;;;5072436;28;20021;-72
2023/05/25 12:11:31;;;;;;;7.63;2.50;;;24.70;89.10;;;;;;5061499;28;20033;-72
2023/05/25 12:14:00;;;;;;;11.07;2.47;;;24.20;87.60;;;;;;5064729;28;20041;-73
2023/05/25 12:16:28;;;;;;;14.57;3.15;;;23.40;88.50;;;;;;5074266;28;20033;-72
2023/05/25 12:18:56;;;;;;;12.98;2.75;;;22.70;90.00;;;;;;5065744;28;20020;-71
2023/05/25 12:21:23;;;;;;;12.20;2.65;;;22.10;90.10;;;;;;5070135;28;20036;-71
2023/05/25 12:23:50;;;;;;;11.07;2.83;;;21.60;90.40;;;;;;5060332;28;20111;-73
2023/05/25 12:26:26;;;;;;;10.07;2.65;;;21.30;91.10;;;;;;5057015;28;20443;-75
2023/05/25 12:29:08;;;;;;;11.50;2.90;;;21.90;90.30;;;;;;5070666;28;20062;-71
2023/05/25 12:31:37;;;;;;;10.63;2.72;;;22.20;89.80;;;;;;5056963;28;20488;-72
2023/05/25 12:34:06;;;;;;;10.82;2.70;;;22.20;89.90;;;;;;5056838;28;20500;-74
2023/05/25 12:36:46;;;;;;;13.70;2.63;;;22.20;87.90;;;;;;5054496;28;20057;-72
2023/05/25 12:39:14;;;;;;;13.80;2.63;;;21.70;88.30;;;;;;5052860;28;20021;-71
2023/05/25 12:41:47;;;;;;;11.07;2.75;;;21.30;89.00;;;;;;5054795;28;20025;-71